Aviation Digital Data Service (ADDS)

Output produced by METARs form (2306 UTC 23 March 2019)
found at http://www.aviationweather.gov/metar/data/
 
METAR text: ZGOW 232300Z 06003MPS 9999 -RA FEW017 OVC036 14/14 Q1021 NOSIG
Conditions at: ZGOW (SHAN-TOU , CN) observed 2300 UTC 23 March 2019
Temperature: 14.0°C (57°F)
Dewpoint: 14.0°C (57°F) [RH = 100%]
Pressure (altimeter): 30.15 inches Hg (1021.0 mb)
Winds: from the ENE (60 degrees) at 7 MPH (6 knots; 3.1 m/s)
Visibility: 6 or more miles (10+ km)
Ceiling: 3600 feet AGL
Clouds: few clouds at 1700 feet AGL
overcast cloud deck at 3600 feet AGL
Weather: -RA  (light rain)

METAR text: ZGOW 232200Z 10003MPS 9999 FEW017 OVC036 14/14 Q1020 NOSIG
Conditions at: ZGOW (SHAN-TOU , CN) observed 2200 UTC 23 March 2019
Temperature: 14.0°C (57°F)
Dewpoint: 14.0°C (57°F) [RH = 100%]
Pressure (altimeter): 30.12 inches Hg (1020.0 mb)
Winds: from the E (100 degrees) at 7 MPH (6 knots; 3.1 m/s)
Visibility: 6 or more miles (10+ km)
Ceiling: 3600 feet AGL
Clouds: few clouds at 1700 feet AGL
overcast cloud deck at 3600 feet AGL
Weather: no significant weather observed at this time

METAR text: ZGOW 232100Z 11003MPS 070V130 9999 FEW008 OVC030 13/13 Q1020 NOSIG
Conditions at: ZGOW (SHAN-TOU , CN) observed 2100 UTC 23 March 2019
Temperature: 13.0°C (55°F)
Dewpoint: 13.0°C (55°F) [RH = 100%]
Pressure (altimeter): 30.12 inches Hg (1020.0 mb)
Winds: from the ESE (110 degrees) at 7 MPH (6 knots; 3.1 m/s)
Visibility: 6 or more miles (10+ km)
Ceiling: 3000 feet AGL
Clouds: few clouds at 800 feet AGL
overcast cloud deck at 3000 feet AGL
Weather: no significant weather observed at this time

METAR text: ZGOW 232000Z 12003MPS 8000 -RA FEW008 OVC030 13/13 Q1020 NOSIG
Conditions at: ZGOW (SHAN-TOU , CN) observed 2000 UTC 23 March 2019
Temperature: 13.0°C (55°F)
Dewpoint: 13.0°C (55°F) [RH = 100%]
Pressure (altimeter): 30.12 inches Hg (1020.0 mb)
Winds: from the ESE (120 degrees) at 7 MPH (6 knots; 3.1 m/s)
Visibility: 5 miles ( 8 km)
Ceiling: 3000 feet AGL
Clouds: few clouds at 800 feet AGL
overcast cloud deck at 3000 feet AGL
Weather: -RA  (light rain)

METAR text: ZGOW 231900Z 09004MPS 050V110 6000 -RA FEW008 SCT015 OVC030 14/14 Q1020 NOSIG
Conditions at: ZGOW (SHAN-TOU , CN) observed 1900 UTC 23 March 2019
Temperature: 14.0°C (57°F)
Dewpoint: 14.0°C (57°F) [RH = 100%]
Pressure (altimeter): 30.12 inches Hg (1020.0 mb)
Winds: from the E (90 degrees) at 9 MPH (8 knots; 4.1 m/s)
Visibility: 4 miles ( 6 km)
Ceiling: 3000 feet AGL
Clouds: few clouds at 800 feet AGL
scattered clouds at 1500 feet AGL
overcast cloud deck at 3000 feet AGL
Weather: -RA  (light rain)

METAR text: ZGOW 231800Z 09002MPS 060V130 5000 -RA SCT007 OVC030 14/14 Q1020 NOSIG
Conditions at: ZGOW (SHAN-TOU , CN) observed 1800 UTC 23 March 2019
Temperature: 14.0°C (57°F)
Dewpoint: 14.0°C (57°F) [RH = 100%]
Pressure (altimeter): 30.12 inches Hg (1020.0 mb)
Winds: from the E (90 degrees) at 5 MPH (4 knots; 2.1 m/s)
Visibility: 3 miles ( 5 km)
Ceiling: 3000 feet AGL
Clouds: scattered clouds at 700 feet AGL
overcast cloud deck at 3000 feet AGL
Weather: -RA  (light rain)

METAR text: ZGOW 231700Z 11003MPS 080V140 6000 -RA SCT017 OVC033 14/14 Q1021 NOSIG
Conditions at: ZGOW (SHAN-TOU , CN) observed 1700 UTC 23 March 2019
Temperature: 14.0°C (57°F)
Dewpoint: 14.0°C (57°F) [RH = 100%]
Pressure (altimeter): 30.15 inches Hg (1021.0 mb)
Winds: from the ESE (110 degrees) at 7 MPH (6 knots; 3.1 m/s)
Visibility: 4 miles ( 6 km)
Ceiling: 3300 feet AGL
Clouds: scattered clouds at 1700 feet AGL
overcast cloud deck at 3300 feet AGL
Weather: -RA  (light rain)

METAR text: ZGOW 231600Z 10003MPS 080V140 7000 -SHRA SCT017 FEW026CB OVC033 15/14 Q1021 BECMG 2500 SHRA
Conditions at: ZGOW (SHAN-TOU , CN) observed 1600 UTC 23 March 2019
Temperature: 15.0°C (59°F)
Dewpoint: 14.0°C (57°F) [RH = 94%]
Pressure (altimeter): 30.15 inches Hg (1021.0 mb)
Winds: from the E (100 degrees) at 7 MPH (6 knots; 3.1 m/s)
Visibility: 4 miles ( 7 km)
Ceiling: 3300 feet AGL
Clouds: scattered clouds at 1700 feet AGL
few clouds at 2600 feet AGL
overcast cloud deck at 3300 feet AGL
Weather: -SHRA  (light rain showers)

METAR text: ZGOW 231500Z 09002MPS 9999 FEW015 OVC030 16/14 Q1021 NOSIG
Conditions at: ZGOW (SHAN-TOU , CN) observed 1500 UTC 23 March 2019
Temperature: 16.0°C (61°F)
Dewpoint: 14.0°C (57°F) [RH = 88%]
Pressure (altimeter): 30.15 inches Hg (1021.0 mb)
Winds: from the E (90 degrees) at 5 MPH (4 knots; 2.1 m/s)
Visibility: 6 or more miles (10+ km)
Ceiling: 3000 feet AGL
Clouds: few clouds at 1500 feet AGL
overcast cloud deck at 3000 feet AGL
Weather: no significant weather observed at this time

METAR text: ZGOW 231400Z 08003MPS 9999 OVC023 16/14 Q1021 NOSIG
Conditions at: ZGOW (SHAN-TOU , CN) observed 1400 UTC 23 March 2019
Temperature: 16.0°C (61°F)
Dewpoint: 14.0°C (57°F) [RH = 88%]
Pressure (altimeter): 30.15 inches Hg (1021.0 mb)
Winds: from the E (80 degrees) at 7 MPH (6 knots; 3.1 m/s)
Visibility: 6 or more miles (10+ km)
Ceiling: 2300 feet AGL
Clouds: overcast cloud deck at 2300 feet AGL
Weather: no significant weather observed at this time

METAR text: ZGOW 231300Z 07003MPS 9999 OVC023 16/14 Q1021 NOSIG
Conditions at: ZGOW (SHAN-TOU , CN) observed 1300 UTC 23 March 2019
Temperature: 16.0°C (61°F)
Dewpoint: 14.0°C (57°F) [RH = 88%]
Pressure (altimeter): 30.15 inches Hg (1021.0 mb)
Winds: from the ENE (70 degrees) at 7 MPH (6 knots; 3.1 m/s)
Visibility: 6 or more miles (10+ km)
Ceiling: 2300 feet AGL
Clouds: overcast cloud deck at 2300 feet AGL
Weather: no significant weather observed at this time

METAR text: ZGOW 231200Z 09003MPS 060V120 8000 -RA SCT011 OVC020 15/15 Q1020 NOSIG
Conditions at: ZGOW (SHAN-TOU , CN) observed 1200 UTC 23 March 2019
Temperature: 15.0°C (59°F)
Dewpoint: 15.0°C (59°F) [RH = 100%]
Pressure (altimeter): 30.12 inches Hg (1020.0 mb)
Winds: from the E (90 degrees) at 7 MPH (6 knots; 3.1 m/s)
Visibility: 5 miles ( 8 km)
Ceiling: 2000 feet AGL
Clouds: scattered clouds at 1100 feet AGL
overcast cloud deck at 2000 feet AGL
Weather: -RA  (light rain)

METAR text: ZGOW 231100Z 10005MPS 9999 BKN017 OVC020 16/14 Q1020 NOSIG
Conditions at: ZGOW (SHAN-TOU , CN) observed 1100 UTC 23 March 2019
Temperature: 16.0°C (61°F)
Dewpoint: 14.0°C (57°F) [RH = 88%]
Pressure (altimeter): 30.12 inches Hg (1020.0 mb)
Winds: from the E (100 degrees) at 12 MPH (10 knots; 5.1 m/s)
Visibility: 6 or more miles (10+ km)
Ceiling: 1700 feet AGL
Clouds: broken clouds at 1700 feet AGL
overcast cloud deck at 2000 feet AGL
Weather: no significant weather observed at this time

METAR text: ZGOW 231000Z 10004MPS 9999 BKN017 OVC020 17/14 Q1019 NOSIG
Conditions at: ZGOW (SHAN-TOU , CN) observed 1000 UTC 23 March 2019
Temperature: 17.0°C (63°F)
Dewpoint: 14.0°C (57°F) [RH = 82%]
Pressure (altimeter): 30.09 inches Hg (1019.0 mb)
Winds: from the E (100 degrees) at 9 MPH (8 knots; 4.1 m/s)
Visibility: 6 or more miles (10+ km)
Ceiling: 1700 feet AGL
Clouds: broken clouds at 1700 feet AGL
overcast cloud deck at 2000 feet AGL
Weather: no significant weather observed at this time

METAR text: ZGOW 230900Z 10004MPS 070V130 9999 SCT015 OVC020 17/15 Q1018 NOSIG
Conditions at: ZGOW (SHAN-TOU , CN) observed 0900 UTC 23 March 2019
Temperature: 17.0°C (63°F)
Dewpoint: 15.0°C (59°F) [RH = 88%]
Pressure (altimeter): 30.06 inches Hg (1018.0 mb)
Winds: from the E (100 degrees) at 9 MPH (8 knots; 4.1 m/s)
Visibility: 6 or more miles (10+ km)
Ceiling: 2000 feet AGL
Clouds: scattered clouds at 1500 feet AGL
overcast cloud deck at 2000 feet AGL
Weather: no significant weather observed at this time

METAR text: ZGOW 230800Z 10002MPS 070V130 9999 BKN017 OVC026 18/15 Q1018 NOSIG
Conditions at: ZGOW (SHAN-TOU , CN) observed 0800 UTC 23 March 2019
Temperature: 18.0°C (64°F)
Dewpoint: 15.0°C (59°F) [RH = 83%]
Pressure (altimeter): 30.06 inches Hg (1018.0 mb)
Winds: from the E (100 degrees) at 5 MPH (4 knots; 2.1 m/s)
Visibility: 6 or more miles (10+ km)
Ceiling: 1700 feet AGL
Clouds: broken clouds at 1700 feet AGL
overcast cloud deck at 2600 feet AGL
Weather: no significant weather observed at this time

METAR text: ZGOW 230700Z 11002MPS 060V130 9999 BKN017 OVC026 18/15 Q1018 NOSIG
Conditions at: ZGOW (SHAN-TOU , CN) observed 0700 UTC 23 March 2019
Temperature: 18.0°C (64°F)
Dewpoint: 15.0°C (59°F) [RH = 83%]
Pressure (altimeter): 30.06 inches Hg (1018.0 mb)
Winds: from the ESE (110 degrees) at 5 MPH (4 knots; 2.1 m/s)
Visibility: 6 or more miles (10+ km)
Ceiling: 1700 feet AGL
Clouds: broken clouds at 1700 feet AGL
overcast cloud deck at 2600 feet AGL
Weather: no significant weather observed at this time

METAR text: ZGOW 230600Z 09003MPS 070V130 9999 SCT015 OVC033 18/15 Q1018 NOSIG
Conditions at: ZGOW (SHAN-TOU , CN) observed 0600 UTC 23 March 2019
Temperature: 18.0°C (64°F)
Dewpoint: 15.0°C (59°F) [RH = 83%]
Pressure (altimeter): 30.06 inches Hg (1018.0 mb)
Winds: from the E (90 degrees) at 7 MPH (6 knots; 3.1 m/s)
Visibility: 6 or more miles (10+ km)
Ceiling: 3300 feet AGL
Clouds: scattered clouds at 1500 feet AGL
overcast cloud deck at 3300 feet AGL
Weather: no significant weather observed at this time

METAR text: ZGOW 230500Z 10003MPS 060V140 9999 FEW015 OVC033 18/15 Q1019 NOSIG
Conditions at: ZGOW (SHAN-TOU , CN) observed 0500 UTC 23 March 2019
Temperature: 18.0°C (64°F)
Dewpoint: 15.0°C (59°F) [RH = 83%]
Pressure (altimeter): 30.09 inches Hg (1019.0 mb)
Winds: from the E (100 degrees) at 7 MPH (6 knots; 3.1 m/s)
Visibility: 6 or more miles (10+ km)
Ceiling: 3300 feet AGL
Clouds: few clouds at 1500 feet AGL
overcast cloud deck at 3300 feet AGL
Weather: no significant weather observed at this time

METAR text: ZGOW 230400Z 11004MPS 9999 SCT013 OVC030 17/16 Q1020 NOSIG
Conditions at: ZGOW (SHAN-TOU , CN) observed 0400 UTC 23 March 2019
Temperature: 17.0°C (63°F)
Dewpoint: 16.0°C (61°F) [RH = 94%]
Pressure (altimeter): 30.12 inches Hg (1020.0 mb)
Winds: from the ESE (110 degrees) at 9 MPH (8 knots; 4.1 m/s)
Visibility: 6 or more miles (10+ km)
Ceiling: 3000 feet AGL
Clouds: scattered clouds at 1300 feet AGL
overcast cloud deck at 3000 feet AGL
Weather: no significant weather observed at this time

METAR text: ZGOW 230300Z 12005MPS 9999 SCT011 OVC030 17/16 Q1020 NOSIG
Conditions at: ZGOW (SHAN-TOU , CN) observed 0300 UTC 23 March 2019
Temperature: 17.0°C (63°F)
Dewpoint: 16.0°C (61°F) [RH = 94%]
Pressure (altimeter): 30.12 inches Hg (1020.0 mb)
Winds: from the ESE (120 degrees) at 12 MPH (10 knots; 5.1 m/s)
Visibility: 6 or more miles (10+ km)
Ceiling: 3000 feet AGL
Clouds: scattered clouds at 1100 feet AGL
overcast cloud deck at 3000 feet AGL
Weather: no significant weather observed at this time

METAR text: ZGOW 230200Z 12004MPS 9999 SCT009 OVC030 17/17 Q1020 NOSIG
Conditions at: ZGOW (SHAN-TOU , CN) observed 0200 UTC 23 March 2019
Temperature: 17.0°C (63°F)
Dewpoint: 17.0°C (63°F) [RH = 100%]
Pressure (altimeter): 30.12 inches Hg (1020.0 mb)
Winds: from the ESE (120 degrees) at 9 MPH (8 knots; 4.1 m/s)
Visibility: 6 or more miles (10+ km)
Ceiling: 3000 feet AGL
Clouds: scattered clouds at 900 feet AGL
overcast cloud deck at 3000 feet AGL
Weather: no significant weather observed at this time

METAR text: ZGOW 230100Z 10004MPS 070V140 8000 SCT007 OVC033 16/16 Q1020 NOSIG
Conditions at: ZGOW (SHAN-TOU , CN) observed 0100 UTC 23 March 2019
Temperature: 16.0°C (61°F)
Dewpoint: 16.0°C (61°F) [RH = 100%]
Pressure (altimeter): 30.12 inches Hg (1020.0 mb)
Winds: from the E (100 degrees) at 9 MPH (8 knots; 4.1 m/s)
Visibility: 5 miles ( 8 km)
Ceiling: 3300 feet AGL
Clouds: scattered clouds at 700 feet AGL
overcast cloud deck at 3300 feet AGL
Weather: no significant weather observed at this time

METAR text: ZGOW 230000Z 10004MPS 060V130 7000 SCT007 OVC033 16/16 Q1020 NOSIG
Conditions at: ZGOW (SHAN-TOU , CN) observed 0000 UTC 23 March 2019
Temperature: 16.0°C (61°F)
Dewpoint: 16.0°C (61°F) [RH = 100%]
Pressure (altimeter): 30.12 inches Hg (1020.0 mb)
Winds: from the E (100 degrees) at 9 MPH (8 knots; 4.1 m/s)
Visibility: 4 miles ( 7 km)
Ceiling: 3300 feet AGL
Clouds: scattered clouds at 700 feet AGL
overcast cloud deck at 3300 feet AGL
Weather: no significant weather observed at this time

METAR text: ZGOW 222300Z 12003MPS 7000 SCT015 OVC033 16/16 Q1019 NOSIG
Conditions at: ZGOW (SHAN-TOU , CN) observed 2300 UTC 22 March 2019
Temperature: 16.0°C (61°F)
Dewpoint: 16.0°C (61°F) [RH = 100%]
Pressure (altimeter): 30.09 inches Hg (1019.0 mb)
Winds: from the ESE (120 degrees) at 7 MPH (6 knots; 3.1 m/s)
Visibility: 4 miles ( 7 km)
Ceiling: 3300 feet AGL
Clouds: scattered clouds at 1500 feet AGL
overcast cloud deck at 3300 feet AGL
Weather: no significant weather observed at this time

METAR text: ZGOW 222200Z 11003MPS 9999 SCT015 OVC040 16/16 Q1018 NOSIG
Conditions at: ZGOW (SHAN-TOU , CN) observed 2200 UTC 22 March 2019
Temperature: 16.0°C (61°F)
Dewpoint: 16.0°C (61°F) [RH = 100%]
Pressure (altimeter): 30.06 inches Hg (1018.0 mb)
Winds: from the ESE (110 degrees) at 7 MPH (6 knots; 3.1 m/s)
Visibility: 6 or more miles (10+ km)
Ceiling: 4000 feet AGL
Clouds: scattered clouds at 1500 feet AGL
overcast cloud deck at 4000 feet AGL
Weather: no significant weather observed at this time

METAR text: ZGOW 222100Z 11002MPS 080V140 6000 -RA SCT005 OVC033 16/16 Q1017 NOSIG
Conditions at: ZGOW (SHAN-TOU , CN) observed 2100 UTC 22 March 2019
Temperature: 16.0°C (61°F)
Dewpoint: 16.0°C (61°F) [RH = 100%]
Pressure (altimeter): 30.03 inches Hg (1017.0 mb)
Winds: from the ESE (110 degrees) at 5 MPH (4 knots; 2.1 m/s)
Visibility: 4 miles ( 6 km)
Ceiling: 3300 feet AGL
Clouds: scattered clouds at 500 feet AGL
overcast cloud deck at 3300 feet AGL
Weather: -RA  (light rain)

METAR text: ZGOW 222000Z VRB02MPS 5000 -SHRA BR SCT005 FEW026TCU OVC033 16/16 Q1017 NOSIG
Conditions at: ZGOW (SHAN-TOU , CN) observed 2000 UTC 22 March 2019
Temperature: 16.0°C (61°F)
Dewpoint: 16.0°C (61°F) [RH = 100%]
Pressure (altimeter): 30.03 inches Hg (1017.0 mb)
Winds: variable direction winds at 5 MPH (4 knots; 2.1 m/s)
Visibility: 3 miles ( 5 km)
Ceiling: 3300 feet AGL
Clouds: scattered clouds at 500 feet AGL
few clouds at 2600 feet AGL
overcast cloud deck at 3300 feet AGL
Weather: -SHRA BR  (light rain showers, mist)

METAR text: ZGOW 221900Z 11003MPS 7000 -SHRA SCT006 FEW026TCU OVC033 16/16 Q1016 NOSIG
Conditions at: ZGOW (SHAN-TOU , CN) observed 1900 UTC 22 March 2019
Temperature: 16.0°C (61°F)
Dewpoint: 16.0°C (61°F) [RH = 100%]
Pressure (altimeter): 30.00 inches Hg (1016.0 mb)
Winds: from the ESE (110 degrees) at 7 MPH (6 knots; 3.1 m/s)
Visibility: 4 miles ( 7 km)
Ceiling: 3300 feet AGL
Clouds: scattered clouds at 600 feet AGL
few clouds at 2600 feet AGL
overcast cloud deck at 3300 feet AGL
Weather: -SHRA  (light rain showers)

METAR text: ZGOW 221800Z 11002MPS 8000 -SHRA FEW007 OVC040 16/16 Q1017 NOSIG
Conditions at: ZGOW (SHAN-TOU , CN) observed 1800 UTC 22 March 2019
Temperature: 16.0°C (61°F)
Dewpoint: 16.0°C (61°F) [RH = 100%]
Pressure (altimeter): 30.03 inches Hg (1017.0 mb)
Winds: from the ESE (110 degrees) at 5 MPH (4 knots; 2.1 m/s)
Visibility: 5 miles ( 8 km)
Ceiling: 4000 feet AGL
Clouds: few clouds at 700 feet AGL
overcast cloud deck at 4000 feet AGL
Weather: -SHRA  (light rain showers)

METAR text: ZGOW 221700Z 10003MPS 080V140 8000 -SHRA FEW007 OVC040 17/17 Q1017 NOSIG
Conditions at: ZGOW (SHAN-TOU , CN) observed 1700 UTC 22 March 2019
Temperature: 17.0°C (63°F)
Dewpoint: 17.0°C (63°F) [RH = 100%]
Pressure (altimeter): 30.03 inches Hg (1017.0 mb)
Winds: from the E (100 degrees) at 7 MPH (6 knots; 3.1 m/s)
Visibility: 5 miles ( 8 km)
Ceiling: 4000 feet AGL
Clouds: few clouds at 700 feet AGL
overcast cloud deck at 4000 feet AGL
Weather: -SHRA  (light rain showers)

METAR text: ZGOW 221600Z 12003MPS 8000 FEW007 OVC040 17/17 Q1017 NOSIG
Conditions at: ZGOW (SHAN-TOU , CN) observed 1600 UTC 22 March 2019
Temperature: 17.0°C (63°F)
Dewpoint: 17.0°C (63°F) [RH = 100%]
Pressure (altimeter): 30.03 inches Hg (1017.0 mb)
Winds: from the ESE (120 degrees) at 7 MPH (6 knots; 3.1 m/s)
Visibility: 5 miles ( 8 km)
Ceiling: 4000 feet AGL
Clouds: few clouds at 700 feet AGL
overcast cloud deck at 4000 feet AGL
Weather: no significant weather observed at this time

METAR text: ZGOW 221500Z VRB01MPS 5000 -SHRA BR SCT007 OVC026 17/17 Q1017 RESHRA NOSIG
Conditions at: ZGOW (SHAN-TOU , CN) observed 1500 UTC 22 March 2019
Temperature: 17.0°C (63°F)
Dewpoint: 17.0°C (63°F) [RH = 100%]
Pressure (altimeter): 30.03 inches Hg (1017.0 mb)
Winds: variable direction winds at 2 MPH (2 knots; 1.0 m/s)
Visibility: 3 miles ( 5 km)
Ceiling: 2600 feet AGL
Clouds: scattered clouds at 700 feet AGL
overcast cloud deck at 2600 feet AGL
Weather: -SHRA BR  (light rain showers, mist)

METAR text: ZGOW 221400Z 09003MPS 4500 -SHRA BR SCT007 FEW026TCU BKN026 17/17 Q1016 RESHRA BECMG TL1430 SHRA
Conditions at: ZGOW (SHAN-TOU , CN) observed 1400 UTC 22 March 2019
Temperature: 17.0°C (63°F)
Dewpoint: 17.0°C (63°F) [RH = 100%]
Pressure (altimeter): 30.00 inches Hg (1016.0 mb)
Winds: from the E (90 degrees) at 7 MPH (6 knots; 3.1 m/s)
Visibility: 2.80 miles (4.51 km)
Ceiling: 2600 feet AGL
Clouds: scattered clouds at 700 feet AGL
few clouds at 2600 feet AGL
broken clouds at 2600 feet AGL
Weather: -SHRA BR  (light rain showers, mist)

METAR text: ZGOW 221300Z 08005MPS 8000 -SHRA SCT007 FEW026TCU BKN026 17/17 Q1015 BECMG TL1330 2200 SHRA
Conditions at: ZGOW (SHAN-TOU , CN) observed 1300 UTC 22 March 2019
Temperature: 17.0°C (63°F)
Dewpoint: 17.0°C (63°F) [RH = 100%]
Pressure (altimeter): 29.97 inches Hg (1015.0 mb)
Winds: from the E (80 degrees) at 12 MPH (10 knots; 5.1 m/s)
Visibility: 5 miles ( 8 km)
Ceiling: 2600 feet AGL
Clouds: scattered clouds at 700 feet AGL
few clouds at 2600 feet AGL
broken clouds at 2600 feet AGL
Weather: -SHRA  (light rain showers)

METAR text: ZGOW 221200Z 10007MPS 8000 SCT007 FEW026TCU BKN026 18/18 Q1015 BECMG 2200 SHRA
Conditions at: ZGOW (SHAN-TOU , CN) observed 1200 UTC 22 March 2019
Temperature: 18.0°C (64°F)
Dewpoint: 18.0°C (64°F) [RH = 100%]
Pressure (altimeter): 29.97 inches Hg (1015.0 mb)
Winds: from the E (100 degrees) at 16 MPH (14 knots; 7.2 m/s)
Visibility: 5 miles ( 8 km)
Ceiling: 2600 feet AGL
Clouds: scattered clouds at 700 feet AGL
few clouds at 2600 feet AGL
broken clouds at 2600 feet AGL
Weather: no significant weather observed at this time

Forecast for: ZGOW (SHAN-TOU , CN)
Text: TAF ZGOW 231906Z 2400/2424 10004MPS 6000 FEW011 BKN030 TX20/2407Z TN14/2422Z
Forecast period: 0000 UTC 24 March 2019 to 0000 UTC 25 March 2019
Forecast type: FROM: standard forecast or significant change
Winds: from the E (100 degrees) at 9 MPH (8 knots; 4.1 m/s)
Visibility: 4 miles (6 km)
Ceiling: 3000 feet AGL
Clouds: few clouds at 1100 feet AGL
broken clouds at 3000 feet AGL
Weather: no significant weather forecast for this period